createdAt,value
2018-04-23T00:00:58.325Z,52.61
2018-04-23T00:01:58.417Z,52.5
2018-04-23T00:02:58.418Z,52.59
2018-04-23T00:03:58.285Z,52.64
2018-04-23T00:04:58.413Z,52.53
2018-04-23T00:05:58.522Z,52.58
2018-04-23T00:06:58.382Z,52.66
2018-04-23T00:07:58.444Z,52.53
2018-04-23T00:08:58.482Z,52.54
2018-04-23T00:09:58.397Z,52.6
2018-04-23T00:10:58.248Z,52.53
2018-04-23T00:11:58.303Z,52.58
2018-04-23T00:12:58.385Z,52.62
2018-04-23T00:13:58.384Z,52.49
2018-04-23T00:14:58.542Z,52.52
2018-04-23T00:15:58.433Z,52.58
2018-04-23T00:16:58.506Z,52.46
2018-04-23T00:17:58.553Z,52.53
2018-04-23T00:18:58.365Z,52.57
2018-04-23T00:19:58.340Z,52.45
2018-04-23T00:20:58.297Z,52.5
2018-04-23T00:21:58.303Z,52.53
2018-04-23T00:22:58.625Z,52.43
2018-04-23T00:23:58.441Z,52.5
2018-04-23T00:24:58.350Z,52.54
2018-04-23T00:25:58.283Z,52.44
2018-04-23T00:26:58.408Z,52.47
2018-04-23T00:27:58.500Z,52.53
2018-04-23T00:28:58.451Z,52.42
2018-04-23T00:29:58.333Z,52.48
2018-04-23T00:30:58.334Z,52.58
2018-04-23T00:31:58.682Z,52.42
2018-04-23T00:32:58.377Z,52.48
2018-04-23T00:33:58.373Z,52.57
2018-04-23T00:34:58.488Z,52.41
2018-04-23T00:36:00.017Z,52.47
2018-04-23T00:36:58.339Z,52.47
2018-04-23T00:37:58.578Z,52.41
2018-04-23T00:38:58.495Z,52.46
2018-04-23T00:39:58.486Z,52.53
2018-04-23T00:40:58.432Z,52.36
2018-04-23T00:41:58.332Z,52.5
2018-04-23T00:42:58.426Z,52.51
2018-04-23T00:43:58.429Z,52.38
2018-04-23T00:44:58.421Z,52.41
2018-04-23T00:45:58.285Z,52.46
2018-04-23T00:46:58.364Z,52.33
2018-04-23T00:47:58.301Z,52.41
2018-04-23T00:48:58.236Z,52.44
2018-04-23T00:49:58.416Z,52.33
2018-04-23T00:50:58.456Z,52.36
2018-04-23T00:51:58.380Z,52.43
2018-04-23T00:52:58.476Z,52.37
2018-04-23T00:53:58.620Z,52.39
2018-04-23T00:54:58.242Z,52.39
2018-04-23T00:55:58.427Z,52.32
2018-04-23T00:56:58.526Z,52.38
2018-04-23T00:57:58.457Z,52.41
2018-04-23T00:58:58.367Z,52.28
2018-04-23T00:59:58.292Z,52.42
2018-04-23T01:00:58.443Z,52.38
2018-04-23T01:01:58.448Z,52.3
2018-04-23T01:02:58.426Z,52.38
2018-04-23T01:03:58.395Z,52.44
2018-04-23T01:04:58.340Z,52.28
2018-04-23T01:05:58.320Z,52.37
2018-04-23T01:06:58.478Z,52.45
2018-04-23T01:07:58.282Z,52.34
2018-04-23T01:08:58.388Z,52.37
2018-04-23T01:09:58.215Z,52.42
2018-04-23T01:10:58.371Z,52.31
2018-04-23T01:11:58.294Z,52.4
2018-04-23T01:12:58.398Z,52.42
2018-04-23T01:13:58.081Z,52.27
2018-04-23T01:14:58.344Z,52.4
2018-04-23T01:15:58.448Z,52.4
2018-04-23T01:16:58.267Z,52.32
2018-04-23T01:17:58.411Z,52.35
2018-04-23T01:18:58.315Z,52.4
2018-04-23T01:19:58.370Z,52.28
2018-04-23T01:20:58.432Z,52.36
2018-04-23T01:21:58.259Z,52.4
2018-04-23T01:22:58.507Z,52.31
2018-04-23T01:23:58.269Z,52.4
2018-04-23T01:24:58.259Z,52.38
2018-04-23T01:25:58.415Z,52.33
2018-04-23T01:26:58.364Z,52.37
2018-04-23T01:27:58.307Z,52.41
2018-04-23T01:28:58.612Z,52.3
2018-04-23T01:29:58.293Z,52.38
2018-04-23T01:30:58.584Z,52.37
2018-04-23T01:31:58.410Z,52.32
2018-04-23T01:32:58.275Z,52.36
2018-04-23T01:33:58.422Z,52.4
2018-04-23T01:34:58.264Z,52.34
2018-04-23T01:35:58.549Z,52.36
2018-04-23T01:36:58.376Z,52.38
2018-04-23T01:37:58.432Z,52.36
2018-04-23T01:38:58.090Z,52.33
2018-04-23T01:39:58.380Z,52.43
2018-04-23T01:40:58.387Z,52.31
2018-04-23T01:41:58.402Z,52.32
2018-04-23T01:42:58.379Z,52.39
2018-04-23T01:43:58.331Z,52.28
2018-04-23T01:44:58.277Z,52.34
2018-04-23T01:45:58.396Z,52.39
2018-04-23T01:46:58.307Z,52.3
2018-04-23T01:47:58.393Z,52.34
2018-04-23T01:48:58.394Z,52.35
2018-04-23T01:49:58.418Z,52.32
2018-04-23T01:50:58.371Z,52.35
2018-04-23T01:51:58.353Z,52.37
2018-04-23T01:52:58.190Z,52.26
2018-04-23T01:53:58.308Z,52.38
2018-04-23T01:54:58.453Z,52.37
2018-04-23T01:55:58.432Z,52.29
2018-04-23T01:56:58.282Z,52.37
2018-04-23T01:57:58.363Z,52.42
2018-04-23T01:58:58.168Z,52.32
2018-04-23T01:59:58.388Z,52.34
2018-04-23T02:00:58.356Z,52.35
2018-04-23T02:01:58.358Z,52.29
2018-04-23T02:02:58.293Z,52.34
2018-04-23T02:03:58.279Z,52.35
2018-04-23T02:04:58.324Z,52.32
2018-04-23T02:05:58.396Z,52.33
2018-04-23T02:06:58.231Z,52.39
2018-04-23T02:07:58.300Z,52.32
2018-04-23T02:08:58.248Z,52.32
2018-04-23T02:09:58.333Z,52.31
2018-04-23T02:10:58.425Z,52.32
2018-04-23T02:11:58.508Z,52.31
2018-04-23T02:12:58.348Z,52.38
2018-04-23T02:13:58.229Z,52.32
2018-04-23T02:14:58.359Z,52.34
2018-04-23T02:15:58.294Z,52.38
2018-04-23T02:16:58.351Z,52.29
2018-04-23T02:17:58.369Z,52.31
2018-04-23T02:18:58.370Z,52.35
2018-04-23T02:19:58.674Z,52.28
2018-04-23T02:20:58.464Z,52.38
2018-04-23T02:21:58.431Z,52.37
2018-04-23T02:22:58.469Z,52.31
2018-04-23T02:23:58.290Z,52.32
2018-04-23T02:24:58.369Z,52.33
2018-04-23T02:25:58.388Z,52.31
2018-04-23T02:26:58.346Z,52.34
2018-04-23T02:27:58.524Z,52.33
2018-04-23T02:28:59.304Z,52.32
2018-04-23T02:29:58.307Z,52.36
2018-04-23T02:30:58.405Z,52.37
2018-04-23T02:31:58.412Z,52.32
2018-04-23T02:32:58.399Z,52.32
2018-04-23T02:33:58.504Z,52.33
2018-04-23T02:34:58.165Z,52.31
2018-04-23T02:35:58.396Z,52.3
2018-04-23T02:36:58.464Z,52.33
2018-04-23T02:37:58.507Z,52.28
2018-04-23T02:38:58.225Z,52.32
2018-04-23T02:39:58.269Z,52.32
2018-04-23T02:40:58.226Z,52.31
2018-04-23T02:41:58.229Z,52.33
2018-04-23T02:42:58.353Z,52.34
2018-04-23T02:43:58.427Z,52.29
2018-04-23T02:44:58.450Z,52.31
2018-04-23T02:45:58.416Z,52.39
2018-04-23T02:46:58.305Z,52.29
2018-04-23T02:47:58.441Z,52.34
2018-04-23T02:48:58.336Z,52.35
2018-04-23T02:49:58.337Z,52.29
2018-04-23T02:50:58.453Z,52.33
2018-04-23T02:51:58.486Z,52.36
2018-04-23T02:52:58.460Z,52.3
2018-04-23T02:53:58.398Z,52.31
2018-04-23T02:54:58.416Z,52.36
2018-04-23T02:55:58.285Z,52.33
2018-04-23T02:56:58.243Z,52.33
2018-04-23T02:57:58.372Z,52.34
2018-04-23T02:58:58.313Z,52.24
2018-04-23T02:59:58.572Z,52.26
2018-04-23T03:00:58.341Z,52.29
2018-04-23T03:01:58.382Z,52.28
2018-04-23T03:02:58.266Z,52.31
2018-04-23T03:03:58.342Z,52.33
2018-04-23T03:04:58.269Z,52.32
2018-04-23T03:05:58.460Z,52.31
2018-04-23T03:06:58.232Z,52.34
2018-04-23T03:07:58.282Z,52.25
2018-04-23T03:08:58.400Z,52.26
2018-04-23T03:09:58.348Z,52.32
2018-04-23T03:10:58.318Z,52.25
2018-04-23T03:11:58.403Z,52.27
2018-04-23T03:12:58.338Z,52.29
2018-04-23T03:13:58.573Z,52.26
2018-04-23T03:14:58.301Z,52.27
2018-04-23T03:15:58.290Z,52.34
2018-04-23T03:16:58.182Z,52.27
2018-04-23T03:17:58.354Z,52.25
2018-04-23T03:18:58.404Z,52.3
2018-04-23T03:19:58.349Z,52.22
2018-04-23T03:20:58.380Z,52.23
2018-04-23T03:21:58.213Z,52.31
2018-04-23T03:22:58.287Z,52.25
2018-04-23T03:23:58.401Z,52.25
2018-04-23T03:24:58.397Z,52.31
2018-04-23T03:25:58.449Z,52.25
2018-04-23T03:26:58.344Z,52.27
2018-04-23T03:27:58.359Z,52.29
2018-04-23T03:28:58.380Z,52.26
2018-04-23T03:29:58.327Z,52.24
2018-04-23T03:30:58.531Z,52.31
2018-04-23T03:31:58.245Z,52.24
2018-04-23T03:32:58.328Z,52.23
2018-04-23T03:33:58.219Z,52.31
2018-04-23T03:34:58.360Z,52.22
2018-04-23T03:35:58.284Z,52.27
2018-04-23T03:36:58.374Z,52.28
2018-04-23T03:37:58.169Z,52.22
2018-04-23T03:38:58.289Z,52.23
2018-04-23T03:39:58.326Z,52.29
2018-04-23T03:40:58.289Z,52.22
2018-04-23T03:41:58.492Z,52.27
2018-04-23T03:42:58.294Z,52.28
2018-04-23T03:43:58.373Z,52.22
2018-04-23T03:44:58.131Z,52.26
2018-04-23T03:45:58.336Z,52.25
2018-04-23T03:46:58.274Z,52.25
2018-04-23T03:47:58.221Z,52.27
2018-04-23T03:48:58.357Z,52.25
2018-04-23T03:49:58.219Z,52.22
2018-04-23T03:50:58.202Z,52.27
2018-04-23T03:51:58.321Z,52.28
2018-04-23T03:52:58.315Z,52.22
2018-04-23T03:53:58.324Z,52.23
2018-04-23T03:54:58.367Z,52.25
2018-04-23T03:55:58.194Z,52.21
2018-04-23T03:56:58.178Z,52.22
2018-04-23T03:57:58.272Z,52.25
2018-04-23T03:58:58.277Z,52.18
2018-04-23T03:59:58.339Z,52.25
2018-04-23T04:00:58.373Z,52.25
2018-04-23T04:01:58.367Z,52.21
2018-04-23T04:02:58.212Z,52.24
2018-04-23T04:03:58.349Z,52.28
2018-04-23T04:04:58.639Z,52.18
2018-04-23T04:05:58.239Z,52.23
2018-04-23T04:06:58.243Z,52.23
2018-04-23T04:07:58.302Z,52.2
2018-04-23T04:08:58.273Z,52.17
2018-04-23T04:09:58.408Z,52.23
2018-04-23T04:10:58.389Z,52.2
2018-04-23T04:11:58.279Z,52.21
2018-04-23T04:12:58.281Z,52.25
2018-04-23T04:13:58.272Z,52.21
2018-04-23T04:14:58.339Z,52.18
2018-04-23T04:15:58.536Z,52.25
2018-04-23T04:16:59.076Z,52.19
2018-04-23T04:17:58.239Z,52.21
2018-04-23T04:18:58.211Z,52.25
2018-04-23T04:19:58.267Z,52.17
2018-04-23T04:20:58.296Z,52.18
2018-04-23T04:21:58.218Z,52.2
2018-04-23T04:22:58.418Z,52.18
2018-04-23T04:23:58.197Z,52.15
2018-04-23T04:24:58.338Z,52.21
2018-04-23T04:25:58.249Z,52.17
2018-04-23T04:26:58.180Z,52.21
2018-04-23T04:27:58.288Z,52.23
2018-04-23T04:28:58.435Z,52.15
2018-04-23T04:29:58.496Z,52.23
2018-04-23T04:30:58.275Z,52.17
2018-04-23T04:31:58.252Z,52.18
2018-04-23T04:32:58.386Z,52.2
2018-04-23T04:33:58.279Z,52.21
2018-04-23T04:34:58.152Z,52.17
2018-04-23T04:35:58.544Z,52.17
2018-04-23T04:36:58.349Z,52.18
2018-04-23T04:37:58.311Z,52.15
2018-04-23T04:38:58.370Z,52.18
2018-04-23T04:39:58.399Z,52.21
2018-04-23T04:40:58.316Z,52.16
2018-04-23T04:41:58.277Z,52.12
2018-04-23T04:42:58.202Z,52.17
2018-04-23T04:43:58.832Z,52.14
2018-04-23T04:44:58.289Z,52.15
2018-04-23T04:45:58.217Z,52.22
2018-04-23T04:46:58.016Z,52.15
2018-04-23T04:47:58.210Z,52.16
2018-04-23T04:48:58.212Z,52.17
2018-04-23T04:49:58.170Z,52.14
2018-04-23T04:50:58.336Z,52.15
2018-04-23T04:51:58.233Z,52.17
2018-04-23T04:52:58.401Z,52.14
2018-04-23T04:53:58.389Z,52.18
2018-04-23T04:54:58.245Z,52.34
2018-04-23T04:55:58.276Z,52.26
2018-04-23T04:56:58.196Z,52.24
2018-04-23T04:57:58.261Z,52.28
2018-04-23T04:58:58.463Z,52.19
2018-04-23T04:59:58.318Z,52.21
2018-04-23T05:00:58.436Z,52.25
2018-04-23T05:01:58.263Z,52.21
2018-04-23T05:02:58.443Z,52.21
2018-04-23T05:03:58.381Z,52.25
2018-04-23T05:04:58.368Z,52.17
2018-04-23T05:05:58.770Z,52.22
2018-04-23T05:06:58.332Z,52.23
2018-04-23T05:07:58.208Z,52.18
2018-04-23T05:08:58.138Z,52.23
2018-04-23T05:09:58.263Z,52.23
2018-04-23T05:10:58.440Z,52.18
2018-04-23T05:11:58.379Z,52.19
2018-04-23T05:12:58.378Z,52.19
2018-04-23T05:13:58.471Z,52.17
2018-04-23T05:14:58.145Z,52.21
2018-04-23T05:15:58.208Z,52.21
2018-04-23T05:16:58.193Z,52.17
2018-04-23T05:17:58.234Z,52.18
2018-04-23T05:18:58.247Z,52.2
2018-04-23T05:19:58.311Z,52.18
2018-04-23T05:20:58.428Z,52.18
2018-04-23T05:21:58.353Z,52.21
2018-04-23T05:22:58.153Z,52.15
2018-04-23T05:23:58.252Z,52.17
2018-04-23T05:24:58.156Z,52.21
2018-04-23T05:25:58.395Z,52.15
2018-04-23T05:26:58.234Z,52.18
2018-04-23T05:27:58.192Z,52.22
2018-04-23T05:28:58.286Z,52.11
2018-04-23T05:29:58.529Z,52.15
2018-04-23T05:30:58.286Z,52.17
2018-04-23T05:31:58.411Z,52.14
2018-04-23T05:32:58.346Z,52.15
2018-04-23T05:33:58.177Z,52.16
2018-04-23T05:34:58.205Z,52.08
2018-04-23T05:35:58.116Z,52.12
2018-04-23T05:36:58.354Z,52.19
2018-04-23T05:37:58.205Z,52.17
2018-04-23T05:38:58.213Z,52.15
2018-04-23T05:39:58.285Z,52.18
2018-04-23T05:40:58.270Z,52.1
2018-04-23T05:41:58.307Z,52.1
2018-04-23T05:42:58.261Z,52.14
2018-04-23T05:43:58.710Z,52.1
2018-04-23T05:44:58.248Z,52.11
2018-04-23T05:45:58.312Z,52.15
2018-04-23T05:46:58.305Z,52.1
2018-04-23T05:47:58.662Z,52.16
2018-04-23T05:48:58.396Z,52.16
2018-04-23T05:49:58.052Z,52.13
2018-04-23T05:50:58.264Z,52.12
2018-04-23T05:51:58.197Z,52.16
2018-04-23T05:52:58.158Z,52.12
2018-04-23T05:53:58.175Z,52.13
2018-04-23T05:54:58.618Z,52.14
2018-04-23T05:55:58.134Z,52.1
2018-04-23T05:56:58.321Z,52.12
2018-04-23T05:57:58.232Z,52.16
2018-04-23T05:58:58.215Z,52.09
2018-04-23T05:59:58.328Z,52.1
2018-04-23T06:00:58.157Z,52.14
2018-04-23T06:01:58.228Z,52.16
2018-04-23T06:02:58.170Z,52.16
2018-04-23T06:03:58.143Z,52.17
2018-04-23T06:04:58.347Z,52.08
2018-04-23T06:05:58.377Z,52.13
2018-04-23T06:06:58.143Z,52.14
2018-04-23T06:07:58.359Z,52.12
2018-04-23T06:08:58.289Z,52.11
2018-04-23T06:09:58.273Z,52.16
2018-04-23T06:10:58.232Z,52.1
2018-04-23T06:11:58.303Z,52.1
2018-04-23T06:12:58.261Z,52.19
2018-04-23T06:13:58.257Z,52.08
2018-04-23T06:14:58.099Z,52.14
2018-04-23T06:15:58.262Z,52.16
2018-04-23T06:16:58.354Z,52.1
2018-04-23T06:17:58.328Z,52.12
2018-04-23T06:18:58.286Z,52.31
2018-04-23T06:19:58.220Z,52.08
2018-04-23T06:20:58.182Z,52.12
2018-04-23T06:21:58.251Z,52.35
2018-04-23T06:22:58.305Z,52.51
2018-04-23T06:23:58.143Z,52.58
2018-04-23T06:24:58.159Z,52.61
2018-04-23T06:25:58.283Z,52.62
2018-04-23T06:26:58.208Z,52.64
2018-04-23T06:27:58.348Z,52.67
2018-04-23T06:28:58.304Z,52.51
2018-04-23T06:29:58.387Z,52.72
2018-04-23T06:30:58.281Z,52.52
2018-04-23T06:31:58.378Z,52.58
2018-04-23T06:32:58.280Z,52.5
2018-04-23T06:33:58.225Z,52.61
2018-04-23T06:34:58.387Z,52.58
2018-04-23T06:35:58.368Z,52.54
2018-04-23T06:36:58.404Z,52.57
2018-04-23T06:37:58.177Z,52.64
2018-04-23T06:38:58.159Z,52.67
2018-04-23T06:39:58.127Z,52.78
2018-04-23T06:40:58.239Z,52.7
2018-04-23T06:41:58.288Z,52.8
2018-04-23T06:42:58.500Z,52.85
2018-04-23T06:43:58.328Z,52.8
2018-04-23T06:44:58.333Z,52.56
2018-04-23T06:45:58.108Z,52.42
2018-04-23T06:46:58.298Z,52.57
2018-04-23T06:47:58.340Z,52.86
2018-04-23T06:48:58.383Z,53.03
2018-04-23T06:49:58.200Z,53.09
2018-04-23T06:50:58.174Z,53.03
2018-04-23T06:51:58.234Z,53.09
2018-04-23T06:52:58.205Z,52.94
2018-04-23T06:53:58.301Z,53.39
2018-04-23T06:54:58.273Z,53.48
2018-04-23T06:55:58.332Z,53.11
2018-04-23T06:56:58.235Z,53.31
2018-04-23T06:57:58.337Z,53.38
2018-04-23T06:58:58.199Z,53.23
2018-04-23T06:59:58.340Z,53.21
2018-04-23T07:00:58.177Z,53.21
2018-04-23T07:01:58.316Z,53.31
2018-04-23T07:02:58.186Z,53.24
2018-04-23T07:03:58.379Z,53.36
2018-04-23T07:04:58.882Z,53.13
2018-04-23T07:05:58.306Z,53.19
2018-04-23T07:06:58.132Z,53.19
2018-04-23T07:07:58.303Z,53
2018-04-23T07:08:58.267Z,53.04
2018-04-23T07:09:58.228Z,53.17
2018-04-23T07:10:58.237Z,53.08
2018-04-23T07:11:58.273Z,53.2
2018-04-23T07:12:58.296Z,53.16
2018-04-23T07:13:58.305Z,53.11
2018-04-23T07:14:58.209Z,53.13
2018-04-23T07:15:58.236Z,53.15
2018-04-23T07:16:58.333Z,53.11
2018-04-23T07:17:58.209Z,53.05
2018-04-23T07:18:58.435Z,53.32
2018-04-23T07:19:58.446Z,53.1
2018-04-23T07:20:58.403Z,53.02
2018-04-23T07:21:58.126Z,53.36
2018-04-23T07:22:58.357Z,52.94
2018-04-23T07:23:58.137Z,53
2018-04-23T07:24:58.243Z,53.14
2018-04-23T07:25:58.282Z,52.94
2018-04-23T07:26:58.118Z,52.89
2018-04-23T07:27:58.418Z,53.22
2018-04-23T07:28:58.365Z,52.95
2018-04-23T07:29:58.113Z,52.62
2018-04-23T07:30:58.185Z,52.74
2018-04-23T07:31:58.128Z,53
2018-04-23T07:32:58.080Z,53.14
2018-04-23T07:33:58.323Z,53.32
2018-04-23T07:34:58.310Z,53.06
2018-04-23T07:35:58.253Z,53.21
2018-04-23T07:36:58.232Z,53.2
2018-04-23T07:37:58.207Z,53.25
2018-04-23T07:38:58.324Z,53.32
2018-04-23T07:39:58.304Z,53.33
2018-04-23T07:40:58.197Z,53.31
2018-04-23T07:41:58.360Z,53.29
2018-04-23T07:42:58.115Z,53.19
2018-04-23T07:43:58.305Z,53.35
2018-04-23T07:44:58.366Z,53.37
2018-04-23T07:45:58.163Z,53.46
2018-04-23T07:46:58.238Z,53.44
2018-04-23T07:47:58.241Z,53.65
2018-04-23T07:49:00.482Z,53.67
2018-04-23T07:49:58.246Z,53.67
2018-04-23T07:50:58.413Z,53.67
2018-04-23T07:51:58.179Z,53.57
2018-04-23T07:52:58.371Z,53.51
2018-04-23T07:53:58.277Z,53.7
2018-04-23T07:54:57.950Z,53.8
2018-04-23T07:55:58.376Z,53.66
2018-04-23T07:56:58.283Z,53.8
2018-04-23T07:57:58.178Z,53.99
2018-04-23T07:58:58.109Z,53.68
2018-04-23T07:59:58.433Z,53.86
2018-04-23T08:00:58.199Z,53.65
2018-04-23T08:01:58.437Z,53.57
2018-04-23T08:02:58.346Z,53.6
2018-04-23T08:03:58.206Z,53.61
2018-04-23T08:04:58.176Z,53.48
2018-04-23T08:05:58.176Z,53.5
2018-04-23T08:06:58.381Z,53.6
2018-04-23T08:07:58.221Z,53.59
2018-04-23T08:08:58.312Z,53.54
2018-04-23T08:09:58.197Z,53.66
2018-04-23T08:10:58.081Z,53.51
2018-04-23T08:11:58.157Z,53.54
2018-04-23T08:12:58.234Z,53.53
2018-04-23T08:13:58.087Z,53.61
2018-04-23T08:14:58.322Z,53.56
2018-04-23T08:15:58.071Z,53.68
2018-04-23T08:16:58.200Z,53.79
2018-04-23T08:17:58.328Z,53.27
2018-04-23T08:18:58.078Z,53.39
2018-04-23T08:19:58.073Z,53.53
2018-04-23T08:20:58.216Z,53.63
2018-04-23T08:21:58.280Z,53.74
2018-04-23T08:22:58.240Z,53.4
2018-04-23T08:23:58.201Z,53.49
2018-04-23T08:24:58.252Z,53.69
2018-04-23T08:25:58.353Z,53.51
2018-04-23T08:26:58.171Z,53.44
2018-04-23T08:27:58.229Z,53.42
2018-04-23T08:28:58.452Z,53.44
2018-04-23T08:29:58.416Z,53.43
2018-04-23T08:30:58.264Z,53.57
2018-04-23T08:31:58.751Z,53.33
2018-04-23T08:32:58.279Z,53.46
2018-04-23T08:33:58.386Z,53.51
2018-04-23T08:34:58.257Z,53.5
2018-04-23T08:35:58.060Z,53.48
2018-04-23T08:36:58.240Z,53.49
2018-04-23T08:37:58.266Z,53.42
2018-04-23T08:38:58.473Z,53.41
2018-04-23T08:39:58.400Z,53.12
2018-04-23T08:40:58.103Z,53.09
2018-04-23T08:41:58.325Z,53.19
2018-04-23T08:42:58.173Z,53.28
2018-04-23T08:43:58.934Z,53.44
2018-04-23T08:44:58.135Z,53.42
2018-04-23T08:45:58.409Z,53.32
2018-04-23T08:46:58.155Z,53.3
2018-04-23T08:47:58.201Z,53.24
2018-04-23T08:48:58.672Z,53.28
2018-04-23T08:49:58.146Z,53.2
2018-04-23T08:50:58.131Z,53.1
2018-04-23T08:51:58.303Z,53.15
2018-04-23T08:52:58.113Z,53.22
2018-04-23T08:53:58.239Z,53.16
2018-04-23T08:54:58.228Z,53.22
2018-04-23T08:55:58.255Z,53.07
2018-04-23T08:56:58.168Z,53.07
2018-04-23T08:57:58.321Z,53.28
2018-04-23T08:58:58.166Z,53.17
2018-04-23T08:59:58.529Z,53.35
2018-04-23T09:00:58.165Z,53.35
2018-04-23T09:01:58.167Z,53.18
2018-04-23T09:02:58.253Z,53.29
2018-04-23T09:03:58.344Z,53.39
2018-04-23T09:04:58.209Z,53.22
2018-04-23T09:05:58.300Z,53.24
2018-04-23T09:06:58.254Z,53.25
2018-04-23T09:07:58.211Z,53.21
2018-04-23T09:08:58.391Z,53.15
2018-04-23T09:09:58.122Z,53.22
2018-04-23T09:10:58.227Z,53.18
2018-04-23T09:11:58.082Z,53.41
2018-04-23T09:12:58.061Z,53.21
2018-04-23T09:13:58.176Z,53.24
2018-04-23T09:14:58.303Z,53.14
2018-04-23T09:15:58.090Z,53.25
2018-04-23T09:16:58.275Z,53.18
2018-04-23T09:17:58.332Z,53.14
2018-04-23T09:18:58.094Z,53.26
2018-04-23T09:19:58.186Z,53.16
2018-04-23T09:20:58.201Z,53.08
2018-04-23T09:21:58.235Z,53.15
2018-04-23T09:22:58.182Z,53.12
2018-04-23T09:23:58.198Z,53.13
2018-04-23T09:24:58.202Z,53.21
2018-04-23T09:25:58.281Z,53.14
2018-04-23T09:26:58.327Z,53.08
2018-04-23T09:27:58.182Z,53.15
2018-04-23T09:28:58.280Z,53.12
2018-04-23T09:29:58.130Z,53.14
2018-04-23T09:30:58.192Z,53.09
2018-04-23T09:31:58.226Z,53.15
2018-04-23T09:32:58.341Z,53.14
2018-04-23T09:33:58.293Z,53.25
2018-04-23T09:34:57.961Z,53.15
2018-04-23T09:36:00.600Z,53.19
2018-04-23T09:36:58.229Z,53.13
2018-04-23T09:37:58.323Z,53.15
2018-04-23T09:38:58.628Z,53.12
2018-04-23T09:39:58.088Z,53.21
2018-04-23T09:40:58.188Z,52.98
2018-04-23T09:41:58.137Z,53.09
2018-04-23T09:42:58.450Z,53.04
2018-04-23T09:43:58.154Z,53.02
2018-04-23T09:44:58.271Z,53.04
2018-04-23T09:45:58.050Z,53.23
2018-04-23T09:46:58.175Z,53.32
2018-04-23T09:47:58.357Z,53.19
2018-04-23T09:48:58.072Z,53.15
2018-04-23T09:49:58.221Z,53.09
2018-04-23T09:50:58.298Z,53.24
2018-04-23T09:51:58.258Z,53.22
2018-04-23T09:52:58.498Z,53.16
2018-04-23T09:53:58.316Z,53.12
2018-04-23T09:54:58.228Z,53.19
2018-04-23T09:55:58.313Z,53.05
2018-04-23T09:56:58.111Z,52.83
2018-04-23T09:57:58.312Z,53.01
2018-04-23T09:58:58.212Z,53.03
2018-04-23T09:59:58.288Z,53.07
2018-04-23T10:00:58.181Z,53.15
2018-04-23T10:01:58.327Z,53.19
2018-04-23T10:03:00.870Z,53.15
2018-04-23T10:03:58.248Z,53.33
2018-04-23T10:04:58.232Z,53.26
2018-04-23T10:05:58.356Z,53.18
2018-04-23T10:06:58.337Z,53.24
2018-04-23T10:07:58.343Z,53.13
2018-04-23T10:08:58.266Z,53.12
2018-04-23T10:09:58.147Z,53.14
2018-04-23T10:10:58.314Z,53.14
2018-04-23T10:11:58.285Z,53.11
2018-04-23T10:12:58.589Z,53.08
2018-04-23T10:13:58.351Z,53.03
2018-04-23T10:14:58.243Z,52.98
2018-04-23T10:15:58.055Z,53.08
2018-04-23T10:16:58.305Z,53.03
2018-04-23T10:17:58.217Z,53.04
2018-04-23T10:18:58.253Z,53.07
2018-04-23T10:19:58.124Z,53.02
2018-04-23T10:20:58.592Z,52.94
2018-04-23T10:21:58.147Z,53.05
2018-04-23T10:22:58.212Z,53.01
2018-04-23T10:23:58.314Z,53.09
2018-04-23T10:24:58.231Z,53.06
2018-04-23T10:25:58.162Z,53.01
2018-04-23T10:26:58.249Z,53
2018-04-23T10:27:58.292Z,53.04
2018-04-23T10:28:58.107Z,53.22
2018-04-23T10:29:58.126Z,53.51
2018-04-23T10:30:58.269Z,53.38
2018-04-23T10:31:58.315Z,54.06
2018-04-23T10:32:58.278Z,54.11
2018-04-23T10:33:58.226Z,54.29
2018-04-23T10:34:58.102Z,54.29
2018-04-23T10:35:58.159Z,54.11
2018-04-23T10:36:58.218Z,54.23
2018-04-23T10:37:58.104Z,54.17
2018-04-23T10:38:58.670Z,54.1
2018-04-23T10:39:58.111Z,54.05
2018-04-23T10:40:58.268Z,54.12
2018-04-23T10:41:58.508Z,54
2018-04-23T10:42:58.255Z,54.14
2018-04-23T10:43:58.207Z,54.06
2018-04-23T10:44:58.032Z,54.27
2018-04-23T10:45:58.214Z,53.78
2018-04-23T10:46:58.161Z,53.77
2018-04-23T10:47:58.238Z,54.46
2018-04-23T10:48:58.255Z,54.32
2018-04-23T10:49:58.302Z,54.22
2018-04-23T10:50:58.478Z,54.43
2018-04-23T10:51:58.207Z,54.53
2018-04-23T10:52:58.295Z,53.82
2018-04-23T10:53:58.427Z,53.97
2018-04-23T10:54:58.418Z,54.15
2018-04-23T10:55:58.217Z,54.37
2018-04-23T10:56:58.092Z,54.4
2018-04-23T10:57:58.290Z,54.32
2018-04-23T10:58:58.088Z,54.38
2018-04-23T10:59:58.302Z,54.33
2018-04-23T11:00:58.270Z,54.23
2018-04-23T11:01:58.083Z,54.33
2018-04-23T11:02:58.325Z,54.19
2018-04-23T11:03:58.058Z,54.3
2018-04-23T11:04:58.534Z,54.27
2018-04-23T11:05:58.290Z,54.27
2018-04-23T11:06:58.115Z,54.22
2018-04-23T11:07:58.336Z,54.22
2018-04-23T11:08:58.044Z,54.31
2018-04-23T11:09:58.315Z,54.57
2018-04-23T11:10:58.180Z,54.32
2018-04-23T11:11:58.228Z,54.55
2018-04-23T11:12:58.207Z,54.02
2018-04-23T11:13:58.061Z,54.18
2018-04-23T11:14:58.473Z,54.31
2018-04-23T11:15:58.175Z,54.83
2018-04-23T11:16:58.245Z,55.18
2018-04-23T11:17:58.218Z,53.51
2018-04-23T11:18:58.347Z,56.18
2018-04-23T11:19:58.094Z,53.95
2018-04-23T11:20:58.224Z,55.35
2018-04-23T11:21:58.129Z,52.96
2018-04-23T11:22:58.193Z,52.94
2018-04-23T11:23:58.211Z,53.13
2018-04-23T11:24:58.024Z,53.24
2018-04-23T11:25:58.086Z,54.03
2018-04-23T11:26:58.168Z,52.89
2018-04-23T11:27:58.244Z,52.97
2018-04-23T11:28:58.083Z,53.16
2018-04-23T11:29:58.134Z,54.6
2018-04-23T11:30:58.222Z,52.89
2018-04-23T11:31:58.027Z,53.37
2018-04-23T11:32:58.179Z,59.22
2018-04-23T11:33:58.226Z,52.34
2018-04-23T11:34:58.181Z,52.68
2018-04-23T11:35:58.093Z,52.99
2018-04-23T11:36:58.327Z,53.03
2018-04-23T11:37:58.107Z,53.14
2018-04-23T11:38:58.125Z,53.09
2018-04-23T11:39:58.228Z,53.24
2018-04-23T11:40:58.153Z,53.39
2018-04-23T11:41:58.347Z,55.08
2018-04-23T11:42:58.568Z,53.64
2018-04-23T11:43:58.191Z,53.14
2018-04-23T11:44:58.231Z,53.3
2018-04-23T11:45:57.921Z,53.67
2018-04-23T11:46:58.157Z,53.16
2018-04-23T11:47:58.287Z,53.37
2018-04-23T11:48:58.224Z,53.24
2018-04-23T11:49:58.018Z,53.15
2018-04-23T11:50:58.266Z,53.3
2018-04-23T11:51:58.079Z,53.34
2018-04-23T11:52:58.227Z,53.31
2018-04-23T11:53:58.255Z,53.17
2018-04-23T11:54:58.207Z,53.18
2018-04-23T11:55:58.420Z,53.18
2018-04-23T11:56:58.243Z,53.21
2018-04-23T11:57:58.211Z,52.81
2018-04-23T11:58:58.268Z,52.87
2018-04-23T11:59:58.179Z,52.95
2018-04-23T12:00:58.281Z,53.18
2018-04-23T12:01:58.013Z,53.2
2018-04-23T12:02:58.200Z,53.24
2018-04-23T12:03:58.115Z,53.2
2018-04-23T12:04:58.295Z,53.48
2018-04-23T12:33:56.767Z,57.27
2018-04-23T12:34:56.567Z,52.91
2018-04-23T12:35:58.289Z,52.8
2018-04-23T12:36:58.115Z,52.75
2018-04-23T12:40:31.207Z,53.09
2018-04-23T12:41:31.197Z,53.01
2018-04-23T12:42:31.206Z,52.98
2018-04-23T12:43:31.085Z,53.03
2018-04-23T12:44:31.370Z,52.75
2018-04-23T12:45:31.211Z,53.19
2018-04-23T12:46:31.337Z,53.19
2018-04-23T12:47:31.282Z,53.05
2018-04-23T12:48:31.171Z,53.07
2018-04-23T12:49:05.789Z,55.11
2018-04-23T12:50:05.826Z,54.1
2018-04-23T12:51:06.359Z,54.56
2018-04-23T12:52:05.981Z,52.84
2018-04-23T12:53:06.076Z,52.77
2018-04-23T12:54:06.222Z,52.82
2018-04-23T12:55:06.119Z,52.78
2018-04-23T12:56:05.951Z,53.01
2018-04-23T12:57:06.010Z,52.99
2018-04-23T12:58:05.805Z,52.98
2018-04-23T12:59:06.138Z,53.02
2018-04-23T13:00:05.920Z,52.99
2018-04-23T13:01:05.976Z,52.92
2018-04-23T13:02:05.788Z,52.95
2018-04-23T13:03:05.792Z,52.99
2018-04-23T13:04:06.072Z,52.96
2018-04-23T13:05:05.850Z,52.9
2018-04-23T13:06:06.226Z,52.97
2018-04-23T13:07:06.073Z,52.88
2018-04-23T13:08:06.053Z,52.94
2018-04-23T13:09:06.149Z,52.93
2018-04-23T13:10:06.155Z,52.88
2018-04-23T13:11:05.867Z,52.92
2018-04-23T13:12:05.799Z,52.93
2018-04-23T13:13:05.940Z,52.85
2018-04-23T13:14:06.114Z,52.89
2018-04-23T13:15:05.851Z,52.88
2018-04-23T13:16:05.987Z,52.86
2018-04-23T13:17:05.996Z,52.81
2018-04-23T13:18:05.775Z,52.84
2018-04-23T13:19:06.095Z,52.79
2018-04-23T13:20:06.064Z,52.84
2018-04-23T13:21:05.775Z,52.83
2018-04-23T13:22:05.986Z,52.89
2018-04-23T13:23:06.098Z,52.98
2018-04-23T13:24:05.984Z,52.93
2018-04-23T13:25:06.113Z,52.91
2018-04-23T13:26:05.932Z,52.86